Time;durP1;ratioP1;P1;durP2;ratioP2;P2;SDS_P1;SDS_P2;PMS_P1;PMS_P2;Temp;Humidity;BMP_temperature;BMP_pressure;BME280_temperature;BME280_humidity;BME280_pressure;Samples;Min_cycle;Max_cycle;Signal;HPM_P1;HPM_P2
2021/09/11 00:01:47;;;;;;;18.48;11.08;;;;;;;23.36;47.02;101561.79;1737250;82;21050;-49
2021/09/11 00:04:14;;;;;;;14.15;10.90;;;;;;;23.37;47.23;101554.66;1702000;83;21047;-49
2021/09/11 00:06:40;;;;;;;13.18;11.05;;;;;;;23.39;47.43;101558.06;1709826;84;21042;-49
2021/09/11 00:09:07;;;;;;;14.85;10.43;;;;;;;23.41;47.55;101557.53;1719718;83;21022;-49
2021/09/11 00:11:35;;;;;;;13.00;11.30;;;;;;;23.43;47.49;101559.61;1734890;82;21597;-49
2021/09/11 00:14:04;;;;;;;12.75;10.68;;;;;;;23.45;47.38;101556.39;1702906;84;21078;-49
2021/09/11 00:16:30;;;;;;;14.80;11.38;;;;;;;23.41;47.41;101550.89;1719749;83;20999;-49
2021/09/11 00:18:59;;;;;;;12.00;10.80;;;;;;;23.31;47.34;101555.00;1709790;84;21010;-49
2021/09/11 00:21:26;;;;;;;13.48;10.10;;;;;;;23.29;46.96;101547.60;1735247;81;21023;-49
2021/09/11 00:23:53;;;;;;;11.73;10.18;;;;;;;23.27;46.95;101546.84;1703297;83;21014;-49
2021/09/11 00:26:19;;;;;;;15.98;10.60;;;;;;;23.25;46.87;101545.63;1721166;83;20993;-49
2021/09/11 00:28:46;;;;;;;13.40;10.18;;;;;;;23.27;46.59;101548.17;1716887;83;21502;-49
2021/09/11 00:31:13;;;;;;;12.28;10.48;;;;;;;23.27;46.51;101552.16;1727677;83;21031;-49
2021/09/11 00:33:40;;;;;;;13.03;10.13;;;;;;;23.27;46.29;101549.03;1717732;83;21006;-49
2021/09/11 00:36:08;;;;;;;14.38;10.98;;;;;;;23.28;46.06;101549.89;1709370;84;21535;-49
2021/09/11 00:38:35;;;;;;;15.18;10.75;;;;;;;23.28;46.01;101552.55;1720824;82;20995;-49
2021/09/11 00:41:01;;;;;;;13.43;10.65;;;;;;;23.27;46.13;101558.80;1732620;82;20986;-48
2021/09/11 00:43:28;;;;;;;12.70;10.80;;;;;;;23.26;46.19;101559.77;1709111;84;21526;-49
2021/09/11 00:45:56;;;;;;;13.75;10.40;;;;;;;23.25;46.34;101554.05;1704187;84;21046;-49
2021/09/11 00:48:23;;;;;;;18.30;11.10;;;;;;;23.24;46.19;101552.36;1720070;83;21455;-49
2021/09/11 00:50:50;;;;;;;18.75;11.08;;;;;;;23.22;46.18;101555.59;1735228;82;21022;-49
2021/09/11 00:53:16;;;;;;;21.25;11.75;;;;;;;23.19;46.32;101547.80;1710227;84;21074;-49
2021/09/11 00:55:44;;;;;;;16.65;11.60;;;;;;;23.15;46.09;101554.24;1695412;83;21462;-49
2021/09/11 00:58:12;;;;;;;17.25;11.18;;;;;;;23.13;46.03;101550.36;1738720;82;21010;-48
2021/09/11 01:00:39;;;;;;;12.95;10.43;;;;;;;23.16;45.70;101551.98;1690772;84;21015;-49
2021/09/11 01:03:05;;;;;;;14.40;10.82;;;;;;;23.15;45.65;101555.57;1719814;83;21562;-49
2021/09/11 01:05:33;;;;;;;12.75;10.72;;;;;;;23.13;45.94;101557.00;1733156;82;21538;-49
2021/09/11 01:08:00;;;;;;;14.23;10.40;;;;;;;23.12;45.78;101556.61;1717515;83;21065;-49
2021/09/11 01:10:27;;;;;;;13.05;10.50;;;;;;;23.12;45.82;101558.43;1712792;83;21073;-49
2021/09/11 01:12:53;;;;;;;13.10;11.40;;;;;;;23.10;45.67;101559.00;1714460;84;21011;-49
2021/09/11 01:15:32;;;;;;;14.35;11.00;;;;;;;23.09;45.57;101555.95;1708130;83;21078;-50
2021/09/11 01:17:59;;;;;;;13.50;10.80;;;;;;;23.06;45.88;101550.84;1714246;83;21026;-49
2021/09/11 01:20:28;;;;;;;11.80;10.55;;;;;;;23.05;46.15;101555.75;1705838;83;21027;-50
2021/09/11 01:22:55;;;;;;;12.55;11.18;;;;;;;23.05;46.04;101551.31;1696720;84;21034;-49
2021/09/11 01:25:21;;;;;;;12.75;11.03;;;;;;;23.02;45.81;101549.33;1714506;83;20998;-49
2021/09/11 01:27:48;;;;;;;11.73;10.23;;;;;;;23.00;45.97;101552.55;1701374;84;21047;-48
2021/09/11 01:30:16;;;;;;;14.38;10.85;;;;;;;22.97;46.15;101550.92;1714797;83;21026;-49
2021/09/11 01:32:43;;;;;;;12.53;10.40;;;;;;;22.92;46.28;101549.47;1706742;83;21000;-49
2021/09/11 01:35:11;;;;;;;16.25;10.82;;;;;;;22.89;46.31;101549.67;1704424;83;21074;-49
2021/09/11 01:37:37;;;;;;;14.93;11.35;;;;;;;22.87;46.17;101556.88;1703726;83;21015;-49
2021/09/11 01:40:07;;;;;;;16.20;10.93;;;;;;;22.89;46.04;101549.67;1696814;83;21078;-49
2021/09/11 01:42:34;;;;;;;12.88;10.30;;;;;;;22.87;46.21;101546.25;1709107;83;20975;-49
2021/09/11 01:45:09;;;;;;;11.88;10.18;;;;;;;22.86;46.39;101544.53;1713045;83;21033;-49
2021/09/11 01:47:37;;;;;;;12.00;10.68;;;;;;;22.86;46.45;101544.53;1709522;83;21010;-49
2021/09/11 01:50:06;;;;;;;13.15;11.03;;;;;;;22.80;46.60;101548.42;1709002;83;21006;-49
2021/09/11 01:52:33;;;;;;;14.68;10.88;;;;;;;22.79;46.57;101545.86;1709805;83;21491;-49
2021/09/11 01:55:00;;;;;;;16.30;12.05;;;;;;;22.76;46.85;101546.03;1712294;83;21003;-49
2021/09/11 01:57:26;;;;;;;15.85;11.35;;;;;;;22.74;47.06;101546.59;1721375;83;21046;-49
2021/09/11 01:59:54;;;;;;;12.55;10.65;;;;;;;22.72;47.16;101546.70;1715927;83;21062;-49
2021/09/11 02:02:21;;;;;;;14.75;10.93;;;;;;;22.72;47.08;101544.52;1714417;84;21058;-49
2021/09/11 02:04:48;;;;;;;13.78;10.90;;;;;;;22.69;46.98;101550.02;1707216;83;21550;-49
2021/09/11 02:07:16;;;;;;;16.65;11.43;;;;;;;22.67;47.02;101550.08;1704988;83;21030;-49
2021/09/11 02:09:43;;;;;;;16.90;10.63;;;;;;;22.65;47.24;101551.51;1700868;83;21031;-49
2021/09/11 02:12:11;;;;;;;15.03;10.45;;;;;;;22.66;47.26;101551.05;1700828;83;21055;-49
2021/09/11 02:14:40;;;;;;;15.32;10.55;;;;;;;22.67;47.51;101545.27;1708307;84;21018;-49
2021/09/11 02:17:08;;;;;;;16.12;11.05;;;;;;;22.68;47.37;101542.98;1714218;84;20997;-49
2021/09/11 02:19:36;;;;;;;13.05;10.38;;;;;;;22.68;47.15;101540.33;1714196;84;21033;-49
2021/09/11 02:22:05;;;;;;;14.03;11.08;;;;;;;22.67;47.36;101545.27;1714523;84;21037;-49
2021/09/11 02:24:33;;;;;;;14.33;9.48;;;;;;;22.62;47.53;101549.05;1707186;83;21027;-49
2021/09/11 02:27:01;;;;;;;11.70;10.58;;;;;;;22.58;47.71;101546.20;1701554;83;21546;-49
2021/09/11 02:29:28;;;;;;;15.90;11.03;;;;;;;22.56;47.70;101545.41;1710159;83;21490;-49
2021/09/11 02:31:56;;;;;;;13.00;10.30;;;;;;;22.53;47.76;101545.57;1714341;83;21045;-50
2021/09/11 02:34:22;;;;;;;11.18;9.98;;;;;;;22.51;47.82;101547.46;1706108;83;21551;-49
2021/09/11 02:36:50;;;;;;;16.57;10.80;;;;;;;22.50;47.71;101551.04;1714429;83;21039;-49
2021/09/11 02:39:16;;;;;;;12.85;10.90;;;;;;;22.48;47.75;101547.62;1700903;83;21015;-49
2021/09/11 02:41:44;;;;;;;13.95;9.63;;;;;;;22.48;47.66;101544.97;1697782;83;20968;-49
2021/09/11 02:44:10;;;;;;;14.13;10.70;;;;;;;22.46;47.45;101551.34;1714393;84;21006;-49
2021/09/11 02:46:37;;;;;;;14.43;10.85;;;;;;;22.46;47.36;101553.98;1704065;83;21050;-49
2021/09/11 02:49:05;;;;;;;13.95;10.63;;;;;;;22.47;47.13;101567.16;1714198;84;21062;-49
2021/09/11 02:51:34;;;;;;;14.20;10.75;;;;;;;22.48;47.23;101563.54;1701148;84;21023;-49
2021/09/11 02:54:00;;;;;;;16.62;11.15;;;;;;;22.49;47.14;101570.56;1714209;83;21135;-49
2021/09/11 02:56:27;;;;;;;12.60;10.80;;;;;;;22.49;47.26;101572.36;1704175;83;20999;-47
2021/09/11 02:58:55;;;;;;;12.60;10.50;;;;;;;22.48;47.43;101574.14;1697451;83;21020;-47
2021/09/11 03:01:24;;;;;;;13.15;11.30;;;;;;;22.48;47.46;101574.14;1714343;83;21538;-49
2021/09/11 03:03:51;;;;;;;14.75;10.95;;;;;;;22.47;47.38;101575.11;1698824;84;21011;-49
2021/09/11 03:06:18;;;;;;;14.28;11.05;;;;;;;22.47;47.40;101574.24;1730153;82;21010;-49
2021/09/11 03:08:45;;;;;;;13.55;10.68;;;;;;;22.46;47.51;101573.38;1702294;83;21030;-47
2021/09/11 03:11:14;;;;;;;15.68;10.20;;;;;;;22.46;47.65;101569.41;1695122;83;21538;-50
2021/09/11 03:13:42;;;;;;;14.83;10.50;;;;;;;22.45;47.77;101577.45;1743344;81;21093;-46
2021/09/11 03:16:10;;;;;;;14.70;11.00;;;;;;;22.46;47.69;101584.48;1752795;81;21030;-48
2021/09/11 03:18:38;;;;;;;17.70;10.85;;;;;;;22.47;47.75;101577.76;1693132;84;21049;-48
2021/09/11 03:21:05;;;;;;;13.13;10.35;;;;;;;22.48;47.77;101574.14;1748339;81;21563;-48
2021/09/11 03:23:34;;;;;;;16.65;10.72;;;;;;;22.48;47.61;101571.99;1742759;81;21063;-50
2021/09/11 03:26:02;;;;;;;14.05;10.95;;;;;;;22.46;47.41;101573.88;1743189;80;21033;-49
2021/09/11 03:28:30;;;;;;;17.00;10.65;;;;;;;22.45;47.84;101577.45;1744788;81;21574;-51
2021/09/11 03:30:56;;;;;;;11.08;9.68;;;;;;;22.43;48.20;101581.53;1746828;81;21008;-47
2021/09/11 03:33:24;;;;;;;13.00;10.50;;;;;;;22.41;48.36;101580.77;1745914;81;21020;-46
2021/09/11 03:35:51;;;;;;;13.28;10.00;;;;;;;22.39;48.48;101583.12;1746485;81;21010;-47
2021/09/11 03:38:18;;;;;;;15.93;11.50;;;;;;;22.35;48.57;101587.75;1746395;81;20970;-49
2021/09/11 03:40:44;;;;;;;15.32;11.50;;;;;;;22.33;48.38;101579.50;1744868;81;20978;-47
2021/09/11 03:43:11;;;;;;;14.30;10.48;;;;;;;22.31;48.60;101582.70;1743145;81;21000;-47
2021/09/11 03:45:39;;;;;;;18.62;10.65;;;;;;;22.29;48.74;101581.48;1743708;80;21014;-50
2021/09/11 03:48:06;;;;;;;12.58;10.50;;;;;;;22.27;48.48;101579.39;1754040;81;21069;-47
2021/09/11 03:50:34;;;;;;;13.15;10.53;;;;;;;22.26;48.29;101573.69;1752022;80;21000;-47
2021/09/11 03:53:01;;;;;;;14.40;10.75;;;;;;;22.24;48.41;101575.57;1746430;81;21486;-50
2021/09/11 03:55:28;;;;;;;13.93;10.88;;;;;;;22.23;48.33;101573.88;1748389;81;21470;-50
2021/09/11 03:57:55;;;;;;;12.63;10.38;;;;;;;22.21;48.31;101570.45;1693182;84;21081;-49
2021/09/11 04:00:22;;;;;;;14.83;10.90;;;;;;;22.20;48.36;101570.06;1693423;85;20989;-48
2021/09/11 04:02:49;;;;;;;16.37;10.50;;;;;;;22.20;48.29;101571.38;1743292;81;21082;-47
2021/09/11 04:05:15;;;;;;;14.95;10.65;;;;;;;22.19;48.29;101571.02;1743939;80;21011;-47
2021/09/11 04:07:42;;;;;;;12.95;10.38;;;;;;;22.19;48.36;101571.02;1693134;84;21018;-48
2021/09/11 04:10:09;;;;;;;12.50;10.15;;;;;;;22.21;48.35;101574.89;1747162;81;20988;-50
2021/09/11 04:12:36;;;;;;;12.35;10.53;;;;;;;22.20;48.28;101570.06;1769625;80;21501;-47
2021/09/11 04:15:04;;;;;;;15.05;10.98;;;;;;;22.23;48.07;101571.22;1778849;80;21041;-49
2021/09/11 04:17:31;;;;;;;15.53;10.60;;;;;;;22.24;47.95;101572.91;1770287;80;21025;-48
2021/09/11 04:19:58;;;;;;;13.75;11.03;;;;;;;22.25;48.03;101571.98;1770077;80;21040;-49
2021/09/11 04:22:27;;;;;;;13.18;10.08;;;;;;;22.25;47.96;101571.98;1779674;80;21010;-48
2021/09/11 04:24:55;;;;;;;14.65;10.03;;;;;;;22.23;47.98;101571.22;1773201;80;21006;-51
2021/09/11 04:27:23;;;;;;;11.78;10.53;;;;;;;22.23;48.19;101576.53;1770936;80;21533;-49
2021/09/11 04:29:50;;;;;;;17.85;11.40;;;;;;;22.23;48.19;101579.17;1770092;80;21021;-53
2021/09/11 04:32:17;;;;;;;16.02;10.20;;;;;;;22.23;48.13;101578.31;1771217;80;21053;-49
2021/09/11 04:34:44;;;;;;;19.62;9.90;;;;;;;22.22;48.36;101580.56;1772877;80;20999;-49
2021/09/11 04:37:10;;;;;;;13.15;10.13;;;;;;;22.23;48.29;101583.16;1770862;80;21026;-50
2021/09/11 04:39:37;;;;;;;13.98;10.78;;;;;;;22.23;47.83;101577.85;1770745;80;20965;-46
2021/09/11 04:42:05;;;;;;;12.47;9.90;;;;;;;22.22;47.75;101572.15;1769872;80;21044;-48
2021/09/11 04:44:32;;;;;;;16.80;10.30;;;;;;;22.24;47.65;101572.91;1770996;80;21059;-50
2021/09/11 04:47:01;;;;;;;16.40;11.33;;;;;;;22.26;47.68;101578.12;1774050;80;21013;-46
2021/09/11 04:49:27;;;;;;;14.40;10.70;;;;;;;22.28;47.69;101577.10;1772867;80;21823;-49
2021/09/11 04:51:54;;;;;;;16.15;10.40;;;;;;;22.30;47.80;101575.22;1773273;80;21025;-51
2021/09/11 04:54:20;;;;;;;13.68;11.05;;;;;;;22.30;47.74;101575.22;1773490;80;20998;-47
2021/09/11 04:56:47;;;;;;;13.32;11.43;;;;;;;22.30;47.92;101576.54;1771484;80;21482;-50
2021/09/11 04:59:14;;;;;;;14.50;10.95;;;;;;;22.31;47.85;101576.94;1770342;80;20942;-49
2021/09/11 05:01:40;;;;;;;17.45;11.30;;;;;;;22.32;47.73;101572.00;1770432;80;21462;-49
2021/09/11 05:04:08;;;;;;;12.68;10.68;;;;;;;22.31;47.84;101570.31;1772755;80;21007;-47
2021/09/11 05:06:36;;;;;;;14.43;10.43;;;;;;;22.33;48.17;101566.23;1771750;80;21081;-50
2021/09/11 05:09:04;;;;;;;15.80;11.40;;;;;;;22.35;48.49;101569.66;1772765;80;21010;-47
2021/09/11 05:11:33;;;;;;;15.03;10.58;;;;;;;22.38;48.60;101575.63;1768309;80;21009;-47
2021/09/11 05:14:01;;;;;;;12.50;10.32;;;;;;;22.40;48.64;101575.56;1765577;80;21552;-49
2021/09/11 05:16:30;;;;;;;16.40;11.45;;;;;;;22.42;48.52;101571.85;1776200;80;21498;-49
2021/09/11 05:18:58;;;;;;;14.73;10.72;;;;;;;22.44;48.76;101569.13;1768342;80;21536;-51
2021/09/11 05:21:27;;;;;;;12.55;10.10;;;;;;;22.45;48.81;101569.04;1770826;80;21022;-53
2021/09/11 05:23:56;;;;;;;15.93;11.57;;;;;;;22.46;48.91;101568.08;1766695;80;21502;-48
2021/09/11 05:26:22;;;;;;;12.40;10.65;;;;;;;22.48;48.81;101574.14;1777108;80;21009;-51
2021/09/11 05:28:49;;;;;;;12.18;10.55;;;;;;;22.49;48.72;101565.27;1764356;80;21021;-51
2021/09/11 05:31:17;;;;;;;16.15;11.22;;;;;;;22.51;48.71;101564.70;1765863;80;20985;-50
2021/09/11 05:33:44;;;;;;;15.55;10.98;;;;;;;22.50;48.65;101566.95;1762246;80;21041;-51
2021/09/11 05:36:11;;;;;;;39.33;12.50;;;;;;;22.50;48.58;101565.63;1768910;80;21025;-50
2021/09/11 05:38:38;;;;;;;13.40;10.80;;;;;;;22.50;48.62;101566.95;1768405;80;21060;-50
2021/09/11 05:41:05;;;;;;;16.50;11.15;;;;;;;22.49;48.86;101563.94;1770964;80;20998;-50
2021/09/11 05:43:32;;;;;;;14.65;11.35;;;;;;;22.51;48.78;101568.68;1773209;80;21439;-49
2021/09/11 05:45:59;;;;;;;14.00;11.25;;;;;;;22.53;48.83;101569.44;1769988;80;21085;-49
2021/09/11 05:48:26;;;;;;;17.40;11.25;;;;;;;22.58;48.55;101563.45;1780745;80;21001;-49
2021/09/11 05:50:53;;;;;;;13.40;10.50;;;;;;;22.62;48.39;101566.30;1769722;80;21029;-49
2021/09/11 05:53:21;;;;;;;17.23;11.83;;;;;;;22.65;48.43;101570.08;1769941;80;21041;-46
2021/09/11 05:55:48;;;;;;;14.95;10.23;;;;;;;22.69;48.26;101571.23;1777732;80;20974;-48
2021/09/11 05:58:16;;;;;;;15.58;12.15;;;;;;;22.74;48.13;101572.66;1773550;80;21627;-47
2021/09/11 06:00:43;;;;;;;17.23;11.00;;;;;;;22.80;48.04;101568.78;1772994;80;21029;-49
2021/09/11 06:03:10;;;;;;;14.30;11.10;;;;;;;22.84;48.10;101569.84;1775189;80;21608;-50
2021/09/11 06:05:37;;;;;;;12.55;11.03;;;;;;;22.89;48.00;101573.56;1774433;80;21000;-47
2021/09/11 06:08:05;;;;;;;14.90;11.38;;;;;;;22.92;47.76;101570.70;1773910;80;21083;-49
2021/09/11 06:10:32;;;;;;;11.57;10.30;;;;;;;22.93;47.87;101574.61;1778522;80;21669;-46
2021/09/11 06:12:59;;;;;;;13.70;10.68;;;;;;;22.98;47.87;101575.67;1773756;80;21037;-47
2021/09/11 06:15:28;;;;;;;13.95;11.73;;;;;;;23.04;47.76;101572.64;1775706;80;20990;-49
2021/09/11 06:17:54;;;;;;;15.30;11.00;;;;;;;23.07;47.43;101569.79;1776109;80;21034;-48
2021/09/11 06:20:21;;;;;;;17.73;11.38;;;;;;;23.08;47.54;101566.20;1774856;80;21023;-48
2021/09/11 06:22:48;;;;;;;13.80;10.35;;;;;;;23.10;47.60;101574.42;1769346;80;20947;-49
2021/09/11 06:25:14;;;;;;;16.97;10.75;;;;;;;23.13;47.65;101572.07;1776949;80;21451;-46
2021/09/11 06:27:42;;;;;;;16.32;11.12;;;;;;;23.18;47.65;101577.97;1778409;80;20967;-46
2021/09/11 06:30:11;;;;;;;18.85;12.73;;;;;;;23.23;47.41;101578.52;1782703;80;21041;-49
2021/09/11 06:32:38;;;;;;;12.78;10.48;;;;;;;23.27;47.13;101582.70;1779161;80;21021;-49
2021/09/11 06:35:06;;;;;;;18.20;11.70;;;;;;;23.36;47.46;101579.52;1774883;80;20970;-46
2021/09/11 06:37:34;;;;;;;17.17;11.57;;;;;;;23.46;47.25;101585.97;1777105;80;20958;-49
2021/09/11 06:40:03;;;;;;;18.00;11.57;;;;;;;23.56;46.77;101576.47;1776786;80;21033;-49
2021/09/11 06:42:32;;;;;;;12.03;10.78;;;;;;;23.63;46.79;101580.46;1736733;82;21010;-49
2021/09/11 06:44:58;;;;;;;13.30;10.93;;;;;;;23.68;46.69;101586.33;1779242;80;20962;-49
2021/09/11 06:47:27;;;;;;;16.55;11.65;;;;;;;23.69;46.67;101580.08;1783398;80;21025;-47
2021/09/11 06:49:53;;;;;;;17.05;11.50;;;;;;;23.70;46.79;101581.77;1778661;80;20986;-49
2021/09/11 06:52:20;;;;;;;16.48;11.73;;;;;;;23.69;46.61;101582.73;1772280;80;20970;-47
2021/09/11 06:54:48;;;;;;;17.20;11.22;;;;;;;23.70;46.70;101589.73;1772105;80;21084;-50
2021/09/11 06:57:15;;;;;;;13.53;11.10;;;;;;;23.71;46.75;101590.59;1774962;80;21441;-48
2021/09/11 06:59:43;;;;;;;18.73;11.45;;;;;;;23.70;46.67;101588.41;1778715;80;20957;-48
2021/09/11 07:02:10;;;;;;;15.65;11.78;;;;;;;23.72;46.58;101592.33;1775473;80;21021;-48
2021/09/11 07:04:36;;;;;;;13.55;11.35;;;;;;;23.71;46.68;101594.12;1775751;80;20989;-48
2021/09/11 07:07:06;;;;;;;28.90;12.68;;;;;;;23.73;46.80;101589.56;1776280;80;20935;-50
2021/09/11 07:09:34;;;;;;;16.80;11.30;;;;;;;23.75;46.75;101590.31;1781929;80;20986;-48
2021/09/11 07:12:02;;;;;;;14.15;11.45;;;;;;;23.81;46.32;101592.58;1778504;80;21009;-49
2021/09/11 07:14:29;;;;;;;17.35;11.85;;;;;;;23.85;46.15;101591.44;1777565;80;20982;-48
2021/09/11 07:16:57;;;;;;;14.93;11.90;;;;;;;23.89;45.75;101592.95;1774881;80;21068;-49
2021/09/11 07:19:25;;;;;;;13.20;11.28;;;;;;;23.94;45.79;101590.86;1771953;80;21029;-48
2021/09/11 07:21:51;;;;;;;16.93;12.35;;;;;;;24.01;45.95;101597.47;1772391;80;21015;-46
2021/09/11 07:24:19;;;;;;;14.75;12.10;;;;;;;24.08;45.70;101598.84;1766101;80;21058;-50
2021/09/11 07:26:47;;;;;;;16.00;12.28;;;;;;;24.18;45.69;101604.40;1775730;80;21014;-51
2021/09/11 07:29:14;;;;;;;13.62;11.20;;;;;;;24.23;45.54;101600.48;1767832;80;20982;-48
2021/09/11 07:31:42;;;;;;;16.77;12.23;;;;;;;24.29;45.26;101601.91;1772935;80;21506;-47
2021/09/11 07:34:08;;;;;;;13.98;11.45;;;;;;;24.32;45.43;101603.52;1772514;80;21049;-49
2021/09/11 07:36:36;;;;;;;14.90;12.65;;;;;;;24.34;45.50;101608.27;1763152;80;20978;-48
2021/09/11 07:39:04;;;;;;;14.83;11.60;;;;;;;24.35;45.44;101603.30;1768920;80;20992;-48
2021/09/11 07:41:30;;;;;;;14.25;11.93;;;;;;;24.38;45.62;101601.78;1771647;80;21018;-48
2021/09/11 07:43:58;;;;;;;17.25;12.30;;;;;;;24.43;46.17;101600.98;1770710;80;21022;-49
2021/09/11 07:46:25;;;;;;;16.45;12.00;;;;;;;24.43;46.29;101593.87;1763221;80;20971;-46
2021/09/11 07:48:52;;;;;;;17.42;11.80;;;;;;;24.46;46.19;101595.48;1763358;80;20978;-49
2021/09/11 07:51:19;;;;;;;19.02;11.50;;;;;;;24.54;47.30;101587.84;1775614;80;20976;-48
2021/09/11 07:53:46;;;;;;;18.12;12.68;;;;;;;24.54;47.30;101587.84;1779095;80;21525;-48
2021/09/11 07:56:12;;;;;;;17.50;12.20;;;;;;;24.57;46.98;101585.81;1773597;80;21080;-48
2021/09/11 07:58:39;;;;;;;18.37;12.35;;;;;;;24.62;47.18;101590.84;1776333;80;21502;-49
2021/09/11 08:01:06;;;;;;;13.03;11.60;;;;;;;24.71;47.62;101585.73;1777877;80;21477;-47
2021/09/11 08:03:32;;;;;;;17.65;11.18;;;;;;;24.71;47.62;101585.73;1778848;80;21027;-49
2021/09/11 08:05:59;;;;;;;15.32;11.70;;;;;;;24.77;47.35;101589.85;1772592;80;21462;-48
2021/09/11 08:08:26;;;;;;;17.23;11.12;;;;;;;24.82;47.72;101589.05;1771788;80;21092;-48
2021/09/11 08:10:53;;;;;;;14.28;11.63;;;;;;;24.85;47.67;101585.69;1775974;80;21002;-49
2021/09/11 08:13:21;;;;;;;18.65;11.60;;;;;;;24.88;47.92;101580.17;1773657;80;21022;-49
2021/09/11 08:15:47;;;;;;;15.32;11.60;;;;;;;24.88;47.92;101580.17;1778357;80;21118;-49
2021/09/11 08:18:14;;;;;;;15.83;11.45;;;;;;;24.94;47.77;101578.89;1775142;80;21017;-47
2021/09/11 08:20:42;;;;;;;14.78;11.15;;;;;;;24.99;48.22;101570.12;1776727;80;21006;-48
2021/09/11 08:23:09;;;;;;;16.20;11.48;;;;;;;24.99;48.22;101570.12;1774368;80;20994;-47
2021/09/11 08:25:37;;;;;;;16.20;11.70;;;;;;;25.05;47.98;101564.37;1771111;80;21521;-46
2021/09/11 08:28:04;;;;;;;16.57;11.28;;;;;;;25.12;47.77;101559.00;1772034;80;21026;-49
2021/09/11 08:30:31;;;;;;;14.18;11.35;;;;;;;25.24;47.76;101557.28;1766689;80;21538;-46
2021/09/11 08:32:57;;;;;;;17.12;11.38;;;;;;;25.29;47.66;101553.33;1768478;80;21025;-50
2021/09/11 08:35:24;;;;;;;23.42;12.65;;;;;;;25.29;47.66;101553.33;1778022;80;20986;-49
2021/09/11 08:37:51;;;;;;;14.47;11.08;;;;;;;25.36;47.34;101554.61;1775464;80;21002;-50
2021/09/11 08:40:21;;;;;;;15.25;11.75;;;;;;;25.41;47.50;101551.66;1770219;80;21093;-49
2021/09/11 08:42:49;;;;;;;13.35;11.00;;;;;;;25.46;47.61;101550.37;1779564;80;21029;-48
2021/09/11 08:45:16;;;;;;;14.10;10.63;;;;;;;25.46;47.61;101550.37;1773990;80;21065;-45
2021/09/11 08:47:48;;;;;;;15.72;11.33;;;;;;;25.49;47.47;101552.80;1774163;80;21536;-49
2021/09/11 08:50:17;;;;;;;16.27;11.38;;;;;;;25.53;47.44;101542.28;1776445;80;21005;-46
2021/09/11 08:52:46;;;;;;;14.87;11.08;;;;;;;25.60;47.31;101542.23;1778408;80;21005;-47
2021/09/11 08:55:16;;;;;;;14.00;11.00;;;;;;;25.66;47.26;101543.12;1773467;80;20954;-49
2021/09/11 08:58:05;;;;;;;21.77;13.95;;;;;;;25.73;47.37;101540.40;1730731;82;20978;-48
2021/09/11 09:00:46;;;;;;;20.12;13.93;;;;;;;25.80;47.41;101544.81;1654282;85;21032;-48
2021/09/11 09:03:34;;;;;;;18.05;13.13;;;;;;;25.87;47.38;101534.05;1604051;88;21017;-49
2021/09/11 09:06:14;;;;;;;17.62;13.83;;;;;;;25.93;47.12;101536.73;1635948;86;22210;-46
2021/09/11 09:08:44;;;;;;;24.50;15.98;;;;;;;25.98;46.84;101540.80;1645273;86;21065;-49
2021/09/11 09:11:29;;;;;;;17.87;15.50;;;;;;;26.01;46.67;101538.39;1609623;88;21052;-47
2021/09/11 09:14:11;;;;;;;15.78;14.03;;;;;;;26.01;46.63;101534.39;1615262;88;21144;-50
2021/09/11 09:16:47;;;;;;;16.02;12.15;;;;;;;26.02;46.14;101536.07;1609280;88;21057;-48
2021/09/11 09:19:19;;;;;;;13.35;11.25;;;;;;;26.03;46.18;101534.62;1627710;86;21125;-47
2021/09/11 09:21:48;;;;;;;27.50;12.93;;;;;;;26.08;46.14;101532.98;1607786;88;21065;-49
2021/09/11 09:24:33;;;;;;;14.58;12.00;;;;;;;26.14;45.89;101531.20;1625949;86;21059;-50
2021/09/11 09:27:08;;;;;;;12.95;11.55;;;;;;;26.18;45.57;101534.00;1611423;88;21617;-49
2021/09/11 09:29:40;;;;;;;14.45;11.10;;;;;;;26.24;45.69;101532.20;1624183;88;21055;-49
2021/09/11 09:32:07;;;;;;;17.10;11.18;;;;;;;26.28;44.86;101536.34;1626838;88;21051;-47
2021/09/11 09:34:37;;;;;;;14.87;12.00;;;;;;;26.30;44.37;101534.41;1621465;88;21009;-46
2021/09/11 09:37:07;;;;;;;14.35;11.03;;;;;;;26.31;44.22;101525.46;1617852;88;21042;-48
2021/09/11 09:39:46;;;;;;;16.67;11.03;;;;;;;26.35;43.59;101533.12;1607572;88;21132;-48
2021/09/11 09:42:14;;;;;;;11.85;10.45;;;;;;;26.41;43.69;101534.47;1586214;90;21005;-48
2021/09/11 09:44:46;;;;;;;16.10;11.60;;;;;;;26.42;43.40;101525.52;1590738;89;21105;-47
2021/09/11 09:47:16;;;;;;;16.15;11.25;;;;;;;26.47;42.88;101531.34;1577191;90;21048;-46
2021/09/11 09:50:17;;;;;;;14.33;10.63;;;;;;;26.50;42.56;101515.93;1583739;90;21102;-49
2021/09/11 09:52:44;;;;;;;14.30;10.87;;;;;;;26.54;41.99;101524.58;1545411;93;21144;-48
2021/09/11 09:55:11;;;;;;;20.97;11.43;;;;;;;26.59;41.61;101522.39;1526896;93;21567;-46
2021/09/11 09:57:40;;;;;;;13.38;11.03;;;;;;;26.63;41.65;101520.36;1596739;88;21114;-49
2021/09/11 10:00:09;;;;;;;14.60;10.93;;;;;;;26.67;41.87;101511.98;1658159;85;21079;-48
2021/09/11 10:02:38;;;;;;;16.20;11.00;;;;;;;26.73;41.55;101511.53;1657039;85;21670;-48
2021/09/11 10:05:07;;;;;;;17.62;12.13;;;;;;;26.80;41.07;101508.77;1664420;85;21017;-50
2021/09/11 10:07:36;;;;;;;24.43;11.33;;;;;;;26.87;41.31;101510.01;1664973;85;20984;-46
2021/09/11 10:10:03;;;;;;;16.42;11.25;;;;;;;26.95;41.50;101506.73;1656456;85;20981;-50
2021/09/11 10:12:37;;;;;;;14.98;11.33;;;;;;;27.02;40.79;101506.12;1660788;85;21164;-48
2021/09/11 10:15:25;;;;;;;14.50;10.85;;;;;;;27.10;39.91;101503.69;1654126;86;21048;-49
2021/09/11 10:17:55;;;;;;;15.50;10.58;;;;;;;27.17;39.54;101498.24;1587293;89;21121;-48
2021/09/11 10:20:23;;;;;;;13.28;11.33;;;;;;;27.26;39.08;101504.69;1578369;89;21051;-47
2021/09/11 10:23:09;;;;;;;13.75;9.93;;;;;;;27.32;38.82;101501.05;1570831;89;21588;-47
2021/09/11 10:25:41;;;;;;;13.68;11.35;;;;;;;27.38;38.53;101499.25;1575825;89;21605;-49
2021/09/11 10:28:16;;;;;;;14.53;10.70;;;;;;;27.46;38.30;101499.09;1547348;92;21072;-49
2021/09/11 10:31:09;;;;;;;12.15;10.10;;;;;;;27.53;37.87;101493.64;1449783;99;21729;-49
2021/09/11 10:33:50;;;;;;;13.32;10.32;;;;;;;27.60;37.28;101489.47;1475809;95;21079;-50
2021/09/11 10:36:36;;;;;;;12.75;10.35;;;;;;;27.64;36.78;101490.92;1478070;95;21075;-49
2021/09/11 10:39:08;;;;;;;10.10;9.10;;;;;;;27.68;36.50;101487.02;1479666;97;21129;-50
2021/09/11 10:41:34;;;;;;;12.07;9.48;;;;;;;27.70;35.69;101480.58;1440000;98;21101;-49
2021/09/11 10:44:07;;;;;;;13.20;9.40;;;;;;;27.75;35.25;101490.91;1439815;100;21150;-49
2021/09/11 10:46:53;;;;;;;13.30;9.53;;;;;;;27.78;35.04;101482.65;1438959;98;21570;-50
2021/09/11 10:49:35;;;;;;;12.33;9.63;;;;;;;27.82;35.08;101482.24;1431255;99;21077;-47
2021/09/11 10:52:07;;;;;;;23.40;10.58;;;;;;;27.86;36.02;101476.17;1411412;100;21206;-47
2021/09/11 10:54:42;;;;;;;14.25;10.82;;;;;;;27.91;36.30;101472.62;1404695;102;21608;-47
2021/09/11 10:57:16;;;;;;;12.95;10.72;;;;;;;27.95;35.80;101474.06;1413051;100;21096;-47
2021/09/11 10:59:51;;;;;;;17.37;10.75;;;;;;;27.99;37.22;101467.51;1410463;102;21119;-48
2021/09/11 11:02:37;;;;;;;11.83;10.35;;;;;;;28.01;38.30;101466.89;1407733;102;21158;-51
2021/09/11 11:05:09;;;;;;;14.10;10.40;;;;;;;28.07;38.45;101465.04;1378511;104;21204;-48
2021/09/11 11:07:47;;;;;;;14.68;10.18;;;;;;;28.12;38.39;101461.50;1361341;105;21184;-49
2021/09/11 11:10:17;;;;;;;15.32;10.30;;;;;;;28.15;37.74;101458.59;1334155;106;21265;-49
2021/09/11 11:12:50;;;;;;;13.10;10.50;;;;;;;28.19;37.46;101459.52;1352311;104;21189;-49
2021/09/11 11:15:20;;;;;;;13.45;10.08;;;;;;;28.22;37.67;101453.06;1329856;107;21658;-46
2021/09/11 11:17:48;;;;;;;15.73;10.63;;;;;;;28.25;37.21;101444.78;1328441;107;21170;-49